sensor_id;sensor_type;location;lat;lon;timestamp;P1;durP1;ratioP1;P2;durP2;ratioP2
64598;SDS011;51008;51.504;11.548;2023-07-30T00:02:02;9.45;;;4.10;;
64598;SDS011;51008;51.504;11.548;2023-07-30T00:07:03;7.07;;;3.85;;
64598;SDS011;51008;51.504;11.548;2023-07-30T00:12:05;6.63;;;4.07;;
64598;SDS011;51008;51.504;11.548;2023-07-30T00:17:08;5.57;;;4.03;;
64598;SDS011;51008;51.504;11.548;2023-07-30T00:22:09;7.45;;;3.80;;
64598;SDS011;51008;51.504;11.548;2023-07-30T00:27:10;9.60;;;4.15;;
64598;SDS011;51008;51.504;11.548;2023-07-30T00:32:11;5.68;;;3.60;;
64598;SDS011;51008;51.504;11.548;2023-07-30T00:37:12;6.60;;;4.28;;
64598;SDS011;51008;51.504;11.548;2023-07-30T00:42:13;6.97;;;3.85;;
64598;SDS011;51008;51.504;11.548;2023-07-30T00:47:14;6.30;;;4.18;;
64598;SDS011;51008;51.504;11.548;2023-07-30T00:52:18;7.63;;;4.45;;
64598;SDS011;51008;51.504;11.548;2023-07-30T00:57:21;14.52;;;4.70;;
64598;SDS011;51008;51.504;11.548;2023-07-30T01:02:23;7.85;;;4.70;;
64598;SDS011;51008;51.504;11.548;2023-07-30T01:07:24;9.63;;;4.10;;
64598;SDS011;51008;51.504;11.548;2023-07-30T01:12:25;5.63;;;3.85;;
64598;SDS011;51008;51.504;11.548;2023-07-30T01:17:27;10.48;;;3.90;;
64598;SDS011;51008;51.504;11.548;2023-07-30T01:22:28;6.68;;;4.20;;
64598;SDS011;51008;51.504;11.548;2023-07-30T01:27:31;8.48;;;4.63;;
64598;SDS011;51008;51.504;11.548;2023-07-30T01:32:36;8.80;;;4.40;;
64598;SDS011;51008;51.504;11.548;2023-07-30T01:37:39;7.65;;;4.20;;
64598;SDS011;51008;51.504;11.548;2023-07-30T01:42:41;6.53;;;4.27;;
64598;SDS011;51008;51.504;11.548;2023-07-30T01:47:42;10.30;;;4.63;;
64598;SDS011;51008;51.504;11.548;2023-07-30T01:52:43;8.77;;;4.63;;
64598;SDS011;51008;51.504;11.548;2023-07-30T01:57:44;9.68;;;5.35;;
64598;SDS011;51008;51.504;11.548;2023-07-30T02:02:46;9.52;;;4.53;;
64598;SDS011;51008;51.504;11.548;2023-07-30T02:07:47;9.55;;;4.95;;
64598;SDS011;51008;51.504;11.548;2023-07-30T02:12:48;8.68;;;5.60;;
64598;SDS011;51008;51.504;11.548;2023-07-30T02:17:49;8.63;;;5.18;;
64598;SDS011;51008;51.504;11.548;2023-07-30T02:22:50;9.40;;;4.90;;
64598;SDS011;51008;51.504;11.548;2023-07-30T02:27:51;10.82;;;5.30;;
64598;SDS011;51008;51.504;11.548;2023-07-30T02:32:52;7.20;;;5.45;;
64598;SDS011;51008;51.504;11.548;2023-07-30T02:37:53;10.05;;;5.97;;
64598;SDS011;51008;51.504;11.548;2023-07-30T02:42:54;10.35;;;5.78;;
64598;SDS011;51008;51.504;11.548;2023-07-30T02:47:55;12.98;;;5.75;;
64598;SDS011;51008;51.504;11.548;2023-07-30T02:52:56;11.82;;;6.63;;
64598;SDS011;51008;51.504;11.548;2023-07-30T02:57:57;8.57;;;6.00;;
64598;SDS011;51008;51.504;11.548;2023-07-30T03:02:58;13.63;;;6.78;;
64598;SDS011;51008;51.504;11.548;2023-07-30T03:07:59;12.95;;;6.85;;
64598;SDS011;51008;51.504;11.548;2023-07-30T03:13:00;10.73;;;6.55;;
64598;SDS011;51008;51.504;11.548;2023-07-30T03:18:01;14.75;;;6.13;;
64598;SDS011;51008;51.504;11.548;2023-07-30T03:23:03;12.68;;;5.60;;
64598;SDS011;51008;51.504;11.548;2023-07-30T03:28:04;10.18;;;4.75;;
64598;SDS011;51008;51.504;11.548;2023-07-30T03:33:05;9.77;;;5.22;;
64598;SDS011;51008;51.504;11.548;2023-07-30T03:38:06;9.63;;;5.07;;
64598;SDS011;51008;51.504;11.548;2023-07-30T03:43:07;7.50;;;4.50;;
64598;SDS011;51008;51.504;11.548;2023-07-30T03:48:08;11.85;;;4.60;;
64598;SDS011;51008;51.504;11.548;2023-07-30T03:53:09;8.88;;;4.70;;
64598;SDS011;51008;51.504;11.548;2023-07-30T03:58:10;7.35;;;4.32;;
64598;SDS011;51008;51.504;11.548;2023-07-30T04:03:11;8.27;;;4.72;;
64598;SDS011;51008;51.504;11.548;2023-07-30T04:08:12;7.10;;;4.72;;
64598;SDS011;51008;51.504;11.548;2023-07-30T04:13:13;9.50;;;4.75;;
64598;SDS011;51008;51.504;11.548;2023-07-30T04:18:15;9.80;;;4.70;;
64598;SDS011;51008;51.504;11.548;2023-07-30T04:23:16;9.43;;;4.30;;
64598;SDS011;51008;51.504;11.548;2023-07-30T04:28:17;8.60;;;4.22;;
64598;SDS011;51008;51.504;11.548;2023-07-30T04:33:18;5.90;;;4.10;;
64598;SDS011;51008;51.504;11.548;2023-07-30T04:38:19;9.10;;;3.78;;
64598;SDS011;51008;51.504;11.548;2023-07-30T04:43:20;6.13;;;3.35;;
64598;SDS011;51008;51.504;11.548;2023-07-30T04:48:27;5.93;;;4.05;;
64598;SDS011;51008;51.504;11.548;2023-07-30T04:53:29;5.90;;;3.72;;
64598;SDS011;51008;51.504;11.548;2023-07-30T04:58:30;8.38;;;4.40;;
64598;SDS011;51008;51.504;11.548;2023-07-30T05:03:31;8.65;;;4.20;;
64598;SDS011;51008;51.504;11.548;2023-07-30T05:08:32;7.43;;;4.00;;
64598;SDS011;51008;51.504;11.548;2023-07-30T05:13:33;6.32;;;4.13;;
64598;SDS011;51008;51.504;11.548;2023-07-30T05:18:34;9.68;;;4.63;;
64598;SDS011;51008;51.504;11.548;2023-07-30T05:23:35;8.25;;;3.97;;
64598;SDS011;51008;51.504;11.548;2023-07-30T05:28:36;6.25;;;3.90;;
64598;SDS011;51008;51.504;11.548;2023-07-30T05:33:37;5.43;;;3.60;;
64598;SDS011;51008;51.504;11.548;2023-07-30T05:38:38;6.10;;;4.30;;
64598;SDS011;51008;51.504;11.548;2023-07-30T05:43:39;6.07;;;3.75;;
64598;SDS011;51008;51.504;11.548;2023-07-30T05:48:40;5.93;;;3.65;;
64598;SDS011;51008;51.504;11.548;2023-07-30T05:53:42;6.50;;;3.65;;
64598;SDS011;51008;51.504;11.548;2023-07-30T05:58:43;8.90;;;3.60;;
64598;SDS011;51008;51.504;11.548;2023-07-30T06:03:44;7.50;;;3.63;;
64598;SDS011;51008;51.504;11.548;2023-07-30T06:08:45;6.75;;;3.35;;
64598;SDS011;51008;51.504;11.548;2023-07-30T06:13:46;6.03;;;3.45;;
64598;SDS011;51008;51.504;11.548;2023-07-30T06:18:47;9.00;;;3.95;;
64598;SDS011;51008;51.504;11.548;2023-07-30T06:23:48;13.00;;;3.92;;
64598;SDS011;51008;51.504;11.548;2023-07-30T06:28:50;11.07;;;4.07;;
64598;SDS011;51008;51.504;11.548;2023-07-30T06:33:51;6.80;;;3.92;;
64598;SDS011;51008;51.504;11.548;2023-07-30T06:38:52;11.77;;;4.38;;
64598;SDS011;51008;51.504;11.548;2023-07-30T06:43:54;10.15;;;4.38;;
64598;SDS011;51008;51.504;11.548;2023-07-30T06:48:54;12.65;;;5.13;;
64598;SDS011;51008;51.504;11.548;2023-07-30T06:53:56;8.02;;;5.28;;
64598;SDS011;51008;51.504;11.548;2023-07-30T06:58:57;8.45;;;5.10;;
64598;SDS011;51008;51.504;11.548;2023-07-30T07:03:58;8.35;;;5.57;;
64598;SDS011;51008;51.504;11.548;2023-07-30T07:08:59;15.20;;;6.82;;
64598;SDS011;51008;51.504;11.548;2023-07-30T07:14:00;14.95;;;7.60;;
64598;SDS011;51008;51.504;11.548;2023-07-30T07:19:01;11.90;;;6.57;;
64598;SDS011;51008;51.504;11.548;2023-07-30T07:24:02;10.85;;;5.78;;
64598;SDS011;51008;51.504;11.548;2023-07-30T07:29:03;14.25;;;6.35;;
64598;SDS011;51008;51.504;11.548;2023-07-30T07:34:04;12.15;;;6.70;;
64598;SDS011;51008;51.504;11.548;2023-07-30T07:39:05;8.70;;;4.90;;
64598;SDS011;51008;51.504;11.548;2023-07-30T07:44:06;10.13;;;4.28;;
64598;SDS011;51008;51.504;11.548;2023-07-30T07:49:07;10.55;;;4.07;;
64598;SDS011;51008;51.504;11.548;2023-07-30T07:54:08;9.45;;;3.22;;
64598;SDS011;51008;51.504;11.548;2023-07-30T07:59:09;7.25;;;3.17;;
64598;SDS011;51008;51.504;11.548;2023-07-30T08:04:10;9.80;;;3.20;;
64598;SDS011;51008;51.504;11.548;2023-07-30T08:09:11;6.97;;;3.60;;
64598;SDS011;51008;51.504;11.548;2023-07-30T08:14:12;5.30;;;2.65;;
64598;SDS011;51008;51.504;11.548;2023-07-30T08:19:13;5.70;;;2.92;;
64598;SDS011;51008;51.504;11.548;2023-07-30T08:24:14;7.45;;;3.10;;
64598;SDS011;51008;51.504;11.548;2023-07-30T08:29:15;4.68;;;2.58;;
64598;SDS011;51008;51.504;11.548;2023-07-30T08:34:16;9.20;;;3.05;;
64598;SDS011;51008;51.504;11.548;2023-07-30T08:39:18;8.67;;;3.27;;
64598;SDS011;51008;51.504;11.548;2023-07-30T08:44:19;7.15;;;2.88;;
64598;SDS011;51008;51.504;11.548;2023-07-30T08:49:20;7.47;;;2.75;;
64598;SDS011;51008;51.504;11.548;2023-07-30T08:54:21;6.60;;;2.85;;
64598;SDS011;51008;51.504;11.548;2023-07-30T08:59:23;6.03;;;3.00;;
64598;SDS011;51008;51.504;11.548;2023-07-30T09:04:26;6.65;;;2.72;;
64598;SDS011;51008;51.504;11.548;2023-07-30T09:09:31;5.95;;;2.72;;
64598;SDS011;51008;51.504;11.548;2023-07-30T09:14:32;5.85;;;2.30;;
64598;SDS011;51008;51.504;11.548;2023-07-30T09:19:36;5.50;;;2.42;;
64598;SDS011;51008;51.504;11.548;2023-07-30T09:24:41;6.75;;;2.83;;
64598;SDS011;51008;51.504;11.548;2023-07-30T09:29:49;10.65;;;2.45;;
64598;SDS011;51008;51.504;11.548;2023-07-30T09:34:51;6.03;;;2.53;;
64598;SDS011;51008;51.504;11.548;2023-07-30T09:39:53;8.73;;;2.70;;
64598;SDS011;51008;51.504;11.548;2023-07-30T09:44:54;6.28;;;2.42;;
64598;SDS011;51008;51.504;11.548;2023-07-30T09:49:59;3.92;;;2.47;;
64598;SDS011;51008;51.504;11.548;2023-07-30T09:55:00;5.53;;;2.45;;
64598;SDS011;51008;51.504;11.548;2023-07-30T10:00:03;6.28;;;2.75;;
64598;SDS011;51008;51.504;11.548;2023-07-30T10:05:10;6.43;;;2.53;;
64598;SDS011;51008;51.504;11.548;2023-07-30T10:10:14;4.43;;;2.28;;
64598;SDS011;51008;51.504;11.548;2023-07-30T10:15:17;4.28;;;1.85;;
64598;SDS011;51008;51.504;11.548;2023-07-30T10:20:20;7.03;;;2.10;;
64598;SDS011;51008;51.504;11.548;2023-07-30T10:25:27;4.07;;;1.80;;
64598;SDS011;51008;51.504;11.548;2023-07-30T10:30:31;5.40;;;1.98;;
64598;SDS011;51008;51.504;11.548;2023-07-30T10:41:06;4.72;;;2.20;;
64598;SDS011;51008;51.504;11.548;2023-07-30T10:46:09;4.10;;;2.00;;
64598;SDS011;51008;51.504;11.548;2023-07-30T10:51:15;5.10;;;1.90;;
64598;SDS011;51008;51.504;11.548;2023-07-30T10:56:17;4.32;;;1.90;;
64598;SDS011;51008;51.504;11.548;2023-07-30T11:01:23;6.28;;;2.30;;
64598;SDS011;51008;51.504;11.548;2023-07-30T11:06:26;7.15;;;2.20;;
64598;SDS011;51008;51.504;11.548;2023-07-30T11:11:27;9.32;;;2.08;;
64598;SDS011;51008;51.504;11.548;2023-07-30T11:16:28;5.40;;;2.05;;
64598;SDS011;51008;51.504;11.548;2023-07-30T11:21:29;5.90;;;2.25;;
64598;SDS011;51008;51.504;11.548;2023-07-30T11:26:30;7.30;;;2.53;;
64598;SDS011;51008;51.504;11.548;2023-07-30T11:31:31;5.53;;;2.28;;
64598;SDS011;51008;51.504;11.548;2023-07-30T11:36:34;6.88;;;2.60;;
64598;SDS011;51008;51.504;11.548;2023-07-30T11:41:35;5.75;;;2.42;;
64598;SDS011;51008;51.504;11.548;2023-07-30T11:46:36;6.10;;;2.65;;
64598;SDS011;51008;51.504;11.548;2023-07-30T11:51:37;5.90;;;3.08;;
64598;SDS011;51008;51.504;11.548;2023-07-30T11:56:38;5.15;;;3.00;;
64598;SDS011;51008;51.504;11.548;2023-07-30T12:01:39;5.60;;;3.08;;
64598;SDS011;51008;51.504;11.548;2023-07-30T12:06:46;11.27;;;3.92;;
64598;SDS011;51008;51.504;11.548;2023-07-30T12:11:59;10.20;;;3.90;;
64598;SDS011;51008;51.504;11.548;2023-07-30T12:17:01;9.18;;;4.45;;
64598;SDS011;51008;51.504;11.548;2023-07-30T12:22:02;11.77;;;4.55;;
64598;SDS011;51008;51.504;11.548;2023-07-30T12:27:03;5.85;;;3.90;;
64598;SDS011;51008;51.504;11.548;2023-07-30T12:32:05;10.90;;;4.32;;
64598;SDS011;51008;51.504;11.548;2023-07-30T12:37:06;6.22;;;4.10;;
64598;SDS011;51008;51.504;11.548;2023-07-30T12:42:07;8.13;;;3.50;;
64598;SDS011;51008;51.504;11.548;2023-07-30T12:47:08;3.88;;;2.63;;
64598;SDS011;51008;51.504;11.548;2023-07-30T12:52:09;3.85;;;2.50;;
64598;SDS011;51008;51.504;11.548;2023-07-30T12:57:10;5.95;;;2.75;;
64598;SDS011;51008;51.504;11.548;2023-07-30T13:02:11;3.90;;;2.40;;
64598;SDS011;51008;51.504;11.548;2023-07-30T13:07:12;4.18;;;2.53;;
64598;SDS011;51008;51.504;11.548;2023-07-30T13:12:13;6.07;;;2.75;;
64598;SDS011;51008;51.504;11.548;2023-07-30T13:17:14;9.98;;;3.03;;
64598;SDS011;51008;51.504;11.548;2023-07-30T13:22:15;6.75;;;3.03;;
64598;SDS011;51008;51.504;11.548;2023-07-30T13:27:16;4.55;;;3.03;;
64598;SDS011;51008;51.504;11.548;2023-07-30T13:32:18;5.60;;;2.65;;
64598;SDS011;51008;51.504;11.548;2023-07-30T13:37:19;4.20;;;2.40;;
64598;SDS011;51008;51.504;11.548;2023-07-30T13:42:20;2.97;;;2.15;;
64598;SDS011;51008;51.504;11.548;2023-07-30T13:47:21;5.07;;;2.15;;
64598;SDS011;51008;51.504;11.548;2023-07-30T13:52:22;3.90;;;2.25;;
64598;SDS011;51008;51.504;11.548;2023-07-30T13:57:23;5.35;;;2.03;;
64598;SDS011;51008;51.504;11.548;2023-07-30T14:02:25;2.60;;;1.40;;
64598;SDS011;51008;51.504;11.548;2023-07-30T14:07:26;2.97;;;1.55;;
64598;SDS011;51008;51.504;11.548;2023-07-30T14:12:27;2.92;;;1.50;;
64598;SDS011;51008;51.504;11.548;2023-07-30T14:17:28;3.28;;;1.15;;
64598;SDS011;51008;51.504;11.548;2023-07-30T14:22:29;4.38;;;1.20;;
64598;SDS011;51008;51.504;11.548;2023-07-30T14:27:30;2.72;;;1.42;;
64598;SDS011;51008;51.504;11.548;2023-07-30T14:32:31;3.47;;;1.70;;
64598;SDS011;51008;51.504;11.548;2023-07-30T14:37:32;3.33;;;1.60;;
64598;SDS011;51008;51.504;11.548;2023-07-30T14:42:33;7.55;;;2.20;;
64598;SDS011;51008;51.504;11.548;2023-07-30T14:47:34;3.97;;;1.88;;
64598;SDS011;51008;51.504;11.548;2023-07-30T14:52:35;3.65;;;1.85;;
64598;SDS011;51008;51.504;11.548;2023-07-30T14:57:36;3.60;;;1.75;;
64598;SDS011;51008;51.504;11.548;2023-07-30T15:02:37;5.75;;;1.77;;
64598;SDS011;51008;51.504;11.548;2023-07-30T15:07:38;3.85;;;1.80;;
64598;SDS011;51008;51.504;11.548;2023-07-30T15:12:39;5.88;;;1.88;;
64598;SDS011;51008;51.504;11.548;2023-07-30T15:17:40;7.25;;;2.25;;
64598;SDS011;51008;51.504;11.548;2023-07-30T15:22:41;5.32;;;1.90;;
64598;SDS011;51008;51.504;11.548;2023-07-30T15:27:43;7.07;;;2.22;;
64598;SDS011;51008;51.504;11.548;2023-07-30T15:32:44;6.43;;;2.20;;
64598;SDS011;51008;51.504;11.548;2023-07-30T15:37:45;4.90;;;2.10;;
64598;SDS011;51008;51.504;11.548;2023-07-30T15:42:46;8.00;;;2.45;;
64598;SDS011;51008;51.504;11.548;2023-07-30T15:47:47;7.07;;;2.58;;
64598;SDS011;51008;51.504;11.548;2023-07-30T15:52:48;10.40;;;2.53;;
64598;SDS011;51008;51.504;11.548;2023-07-30T15:57:49;7.30;;;2.78;;
64598;SDS011;51008;51.504;11.548;2023-07-30T16:02:50;6.43;;;2.55;;
64598;SDS011;51008;51.504;11.548;2023-07-30T16:07:51;10.55;;;2.72;;
64598;SDS011;51008;51.504;11.548;2023-07-30T16:12:52;13.48;;;2.67;;
64598;SDS011;51008;51.504;11.548;2023-07-30T16:17:53;10.30;;;2.53;;
64598;SDS011;51008;51.504;11.548;2023-07-30T16:22:54;7.70;;;2.63;;
64598;SDS011;51008;51.504;11.548;2023-07-30T16:27:55;8.05;;;2.60;;
64598;SDS011;51008;51.504;11.548;2023-07-30T16:32:56;6.50;;;2.60;;
64598;SDS011;51008;51.504;11.548;2023-07-30T16:37:57;8.10;;;2.78;;
64598;SDS011;51008;51.504;11.548;2023-07-30T16:42:58;5.75;;;2.15;;
64598;SDS011;51008;51.504;11.548;2023-07-30T16:47:59;11.40;;;2.72;;
64598;SDS011;51008;51.504;11.548;2023-07-30T16:53:01;7.57;;;2.55;;
64598;SDS011;51008;51.504;11.548;2023-07-30T16:58:02;9.18;;;2.80;;
64598;SDS011;51008;51.504;11.548;2023-07-30T17:03:03;8.05;;;2.30;;
64598;SDS011;51008;51.504;11.548;2023-07-30T17:08:05;16.55;;;3.20;;
64598;SDS011;51008;51.504;11.548;2023-07-30T17:13:06;9.85;;;2.90;;
64598;SDS011;51008;51.504;11.548;2023-07-30T17:18:07;10.73;;;2.50;;
64598;SDS011;51008;51.504;11.548;2023-07-30T17:23:08;11.93;;;2.78;;
64598;SDS011;51008;51.504;11.548;2023-07-30T17:28:09;8.23;;;2.80;;
64598;SDS011;51008;51.504;11.548;2023-07-30T17:33:10;8.60;;;2.70;;
64598;SDS011;51008;51.504;11.548;2023-07-30T17:38:11;10.30;;;2.60;;
64598;SDS011;51008;51.504;11.548;2023-07-30T17:43:12;7.13;;;3.25;;
64598;SDS011;51008;51.504;11.548;2023-07-30T17:48:13;12.10;;;4.10;;
64598;SDS011;51008;51.504;11.548;2023-07-30T17:53:14;9.25;;;3.53;;
64598;SDS011;51008;51.504;11.548;2023-07-30T17:58:15;9.40;;;3.95;;
64598;SDS011;51008;51.504;11.548;2023-07-30T18:03:16;10.70;;;3.90;;
64598;SDS011;51008;51.504;11.548;2023-07-30T18:08:17;11.95;;;4.03;;
64598;SDS011;51008;51.504;11.548;2023-07-30T18:13:19;12.45;;;3.72;;
64598;SDS011;51008;51.504;11.548;2023-07-30T18:18:21;10.33;;;3.93;;
64598;SDS011;51008;51.504;11.548;2023-07-30T18:23:22;7.25;;;3.70;;
64598;SDS011;51008;51.504;11.548;2023-07-30T18:28:23;7.60;;;3.38;;
64598;SDS011;51008;51.504;11.548;2023-07-30T18:33:24;11.13;;;3.63;;
64598;SDS011;51008;51.504;11.548;2023-07-30T18:38:25;7.72;;;2.78;;
64598;SDS011;51008;51.504;11.548;2023-07-30T18:43:27;8.35;;;2.50;;
64598;SDS011;51008;51.504;11.548;2023-07-30T18:48:28;9.95;;;2.70;;
64598;SDS011;51008;51.504;11.548;2023-07-30T18:53:29;5.43;;;1.90;;
64598;SDS011;51008;51.504;11.548;2023-07-30T18:58:31;9.93;;;1.90;;
64598;SDS011;51008;51.504;11.548;2023-07-30T19:03:32;10.00;;;1.88;;
64598;SDS011;51008;51.504;11.548;2023-07-30T19:08:33;26.60;;;2.45;;
64598;SDS011;51008;51.504;11.548;2023-07-30T19:13:34;8.35;;;1.63;;
64598;SDS011;51008;51.504;11.548;2023-07-30T19:18:35;5.57;;;1.58;;
64598;SDS011;51008;51.504;11.548;2023-07-30T19:23:36;5.30;;;1.70;;
64598;SDS011;51008;51.504;11.548;2023-07-30T19:28:37;21.92;;;2.38;;
64598;SDS011;51008;51.504;11.548;2023-07-30T19:33:38;10.02;;;2.13;;
64598;SDS011;51008;51.504;11.548;2023-07-30T19:38:40;15.75;;;1.98;;
64598;SDS011;51008;51.504;11.548;2023-07-30T19:43:41;10.23;;;2.00;;
64598;SDS011;51008;51.504;11.548;2023-07-30T19:48:42;5.57;;;1.73;;
64598;SDS011;51008;51.504;11.548;2023-07-30T19:53:43;8.88;;;2.17;;
64598;SDS011;51008;51.504;11.548;2023-07-30T19:58:44;8.25;;;1.90;;
64598;SDS011;51008;51.504;11.548;2023-07-30T20:03:45;6.28;;;1.70;;
64598;SDS011;51008;51.504;11.548;2023-07-30T20:08:46;9.27;;;1.75;;
64598;SDS011;51008;51.504;11.548;2023-07-30T20:13:47;8.52;;;2.08;;
64598;SDS011;51008;51.504;11.548;2023-07-30T20:18:48;6.60;;;1.70;;
64598;SDS011;51008;51.504;11.548;2023-07-30T20:23:49;8.55;;;1.85;;
64598;SDS011;51008;51.504;11.548;2023-07-30T20:28:51;7.93;;;1.60;;
64598;SDS011;51008;51.504;11.548;2023-07-30T20:33:52;6.65;;;2.20;;
64598;SDS011;51008;51.504;11.548;2023-07-30T20:38:53;6.03;;;2.00;;
64598;SDS011;51008;51.504;11.548;2023-07-30T20:43:54;5.55;;;1.70;;
64598;SDS011;51008;51.504;11.548;2023-07-30T20:48:55;12.43;;;2.00;;
64598;SDS011;51008;51.504;11.548;2023-07-30T20:53:56;7.35;;;1.75;;
64598;SDS011;51008;51.504;11.548;2023-07-30T20:58:57;8.23;;;2.60;;
64598;SDS011;51008;51.504;11.548;2023-07-30T21:03:58;7.05;;;1.80;;
64598;SDS011;51008;51.504;11.548;2023-07-30T21:08:59;6.20;;;2.10;;
64598;SDS011;51008;51.504;11.548;2023-07-30T21:14:00;7.57;;;2.13;;
64598;SDS011;51008;51.504;11.548;2023-07-30T21:19:01;8.75;;;2.35;;
64598;SDS011;51008;51.504;11.548;2023-07-30T21:24:02;13.02;;;2.38;;
64598;SDS011;51008;51.504;11.548;2023-07-30T21:29:03;10.02;;;2.15;;
64598;SDS011;51008;51.504;11.548;2023-07-30T21:34:04;6.97;;;2.20;;
64598;SDS011;51008;51.504;11.548;2023-07-30T21:39:05;5.60;;;2.00;;
64598;SDS011;51008;51.504;11.548;2023-07-30T21:44:06;11.45;;;2.40;;
64598;SDS011;51008;51.504;11.548;2023-07-30T21:49:07;7.60;;;2.58;;
64598;SDS011;51008;51.504;11.548;2023-07-30T21:54:08;8.52;;;2.22;;
64598;SDS011;51008;51.504;11.548;2023-07-30T21:59:09;8.30;;;2.10;;
64598;SDS011;51008;51.504;11.548;2023-07-30T22:04:10;5.28;;;2.17;;
64598;SDS011;51008;51.504;11.548;2023-07-30T22:09:11;6.20;;;2.17;;
64598;SDS011;51008;51.504;11.548;2023-07-30T22:14:12;10.45;;;2.10;;
64598;SDS011;51008;51.504;11.548;2023-07-30T22:19:13;18.63;;;3.30;;
64598;SDS011;51008;51.504;11.548;2023-07-30T22:24:14;10.20;;;1.90;;
64598;SDS011;51008;51.504;11.548;2023-07-30T22:29:15;7.28;;;2.30;;
64598;SDS011;51008;51.504;11.548;2023-07-30T22:34:16;8.88;;;2.28;;
64598;SDS011;51008;51.504;11.548;2023-07-30T22:39:17;10.75;;;1.88;;
64598;SDS011;51008;51.504;11.548;2023-07-30T22:44:18;8.10;;;2.10;;
64598;SDS011;51008;51.504;11.548;2023-07-30T22:49:19;8.60;;;2.67;;
64598;SDS011;51008;51.504;11.548;2023-07-30T22:54:20;8.40;;;2.20;;
64598;SDS011;51008;51.504;11.548;2023-07-30T22:59:21;10.60;;;2.25;;
64598;SDS011;51008;51.504;11.548;2023-07-30T23:04:22;13.98;;;2.60;;
64598;SDS011;51008;51.504;11.548;2023-07-30T23:09:23;12.00;;;2.10;;
64598;SDS011;51008;51.504;11.548;2023-07-30T23:14:24;8.27;;;2.50;;
64598;SDS011;51008;51.504;11.548;2023-07-30T23:19:25;5.78;;;2.22;;
64598;SDS011;51008;51.504;11.548;2023-07-30T23:24:26;6.53;;;2.00;;
64598;SDS011;51008;51.504;11.548;2023-07-30T23:29:27;10.43;;;2.60;;
64598;SDS011;51008;51.504;11.548;2023-07-30T23:34:28;11.27;;;2.22;;
64598;SDS011;51008;51.504;11.548;2023-07-30T23:39:29;7.80;;;2.13;;
64598;SDS011;51008;51.504;11.548;2023-07-30T23:44:30;8.52;;;2.20;;
64598;SDS011;51008;51.504;11.548;2023-07-30T23:49:31;9.85;;;2.20;;
64598;SDS011;51008;51.504;11.548;2023-07-30T23:54:32;9.15;;;2.00;;
64598;SDS011;51008;51.504;11.548;2023-07-30T23:59:33;5.97;;;1.80;;
